sensor_id;sensor_type;location;lat;lon;timestamp;pressure;altitude;pressure_sealevel;temperature;humidity
53908;BME280;40469;47.998;7.794;2023-03-04T00:01:08;99544.72;;;0.78;100.00
53908;BME280;40469;47.998;7.794;2023-03-04T00:03:33;99547.13;;;0.73;100.00
53908;BME280;40469;47.998;7.794;2023-03-04T00:05:58;99552.28;;;0.73;100.00
53908;BME280;40469;47.998;7.794;2023-03-04T00:08:23;99548.88;;;0.74;100.00
53908;BME280;40469;47.998;7.794;2023-03-04T00:10:49;99555.66;;;0.72;100.00
53908;BME280;40469;47.998;7.794;2023-03-04T00:13:14;99555.66;;;0.72;100.00
53908;BME280;40469;47.998;7.794;2023-03-04T00:15:41;99554.72;;;0.70;100.00
53908;BME280;40469;47.998;7.794;2023-03-04T00:18:06;99552.16;;;0.70;100.00
53908;BME280;40469;47.998;7.794;2023-03-04T00:20:31;99558.75;;;0.63;100.00
53908;BME280;40469;47.998;7.794;2023-03-04T00:22:56;99558.56;;;0.59;100.00
53908;BME280;40469;47.998;7.794;2023-03-04T00:25:22;99559.63;;;0.64;100.00
53908;BME280;40469;47.998;7.794;2023-03-04T00:27:47;99552.16;;;0.70;100.00
53908;BME280;40469;47.998;7.794;2023-03-04T00:30:12;99552.91;;;0.67;100.00
53908;BME280;40469;47.998;7.794;2023-03-04T00:32:37;99563.94;;;0.65;100.00
53908;BME280;40469;47.998;7.794;2023-03-04T00:35:04;99560.38;;;0.61;100.00
53908;BME280;40469;47.998;7.794;2023-03-04T00:37:29;99563.00;;;0.63;100.00
53908;BME280;40469;47.998;7.794;2023-03-04T00:39:54;99566.28;;;0.59;100.00
53908;BME280;40469;47.998;7.794;2023-03-04T00:42:19;99564.44;;;0.56;100.00
53908;BME280;40469;47.998;7.794;2023-03-04T00:44:45;99571.94;;;0.50;100.00
53908;BME280;40469;47.998;7.794;2023-03-04T00:47:10;99569.28;;;0.48;100.00
53908;BME280;40469;47.998;7.794;2023-03-04T00:49:35;99570.00;;;0.44;100.00
53908;BME280;40469;47.998;7.794;2023-03-04T00:52:02;99574.06;;;0.39;100.00
53908;BME280;40469;47.998;7.794;2023-03-04T00:54:27;99562.81;;;0.37;100.00
53908;BME280;40469;47.998;7.794;2023-03-04T00:56:52;99568.88;;;0.37;100.00
53908;BME280;40469;47.998;7.794;2023-03-04T00:59:17;99558.47;;;0.34;100.00
53908;BME280;40469;47.998;7.794;2023-03-04T01:01:42;99556.69;;;0.33;100.00
53908;BME280;40469;47.998;7.794;2023-03-04T01:04:08;99558.53;;;0.36;100.00
53908;BME280;40469;47.998;7.794;2023-03-04T01:06:33;99562.53;;;0.29;100.00
53908;BME280;40469;47.998;7.794;2023-03-04T01:08:58;99560.81;;;0.30;100.00
53908;BME280;40469;47.998;7.794;2023-03-04T01:11:23;99555.09;;;0.35;100.00
53908;BME280;40469;47.998;7.794;2023-03-04T01:13:49;99556.53;;;0.29;100.00
53908;BME280;40469;47.998;7.794;2023-03-04T01:16:14;99552.13;;;0.26;100.00
53908;BME280;40469;47.998;7.794;2023-03-04T01:18:39;99546.88;;;0.23;100.00
53908;BME280;40469;47.998;7.794;2023-03-04T01:21:05;99548.63;;;0.24;100.00
53908;BME280;40469;47.998;7.794;2023-03-04T01:23:30;99551.25;;;0.26;100.00
53908;BME280;40469;47.998;7.794;2023-03-04T01:25:55;99550.31;;;0.24;100.00
53908;BME280;40469;47.998;7.794;2023-03-04T01:28:21;99546.81;;;0.22;100.00
53908;BME280;40469;47.998;7.794;2023-03-04T01:30:46;99553.59;;;0.20;100.00
53908;BME280;40469;47.998;7.794;2023-03-04T01:33:11;99545.75;;;0.16;100.00
53908;BME280;40469;47.998;7.794;2023-03-04T01:35:36;99539.63;;;0.13;100.00
53908;BME280;40469;47.998;7.794;2023-03-04T01:38:02;99542.91;;;0.10;100.00
53908;BME280;40469;47.998;7.794;2023-03-04T01:40:27;99553.88;;;0.06;100.00
53908;BME280;40469;47.998;7.794;2023-03-04T01:42:52;99544.41;;;0.05;100.00
53908;BME280;40469;47.998;7.794;2023-03-04T01:45:18;99537.47;;;0.03;100.00
53908;BME280;40469;47.998;7.794;2023-03-04T01:47:45;99544.09;;;-0.03;100.00
53908;BME280;40469;47.998;7.794;2023-03-04T01:50:32;99533.72;;;-0.06;100.00
53908;BME280;40469;47.998;7.794;2023-03-04T01:52:58;99532.53;;;-0.14;100.00
53908;BME280;40469;47.998;7.794;2023-03-04T01:55:24;99534.34;;;-0.11;100.00
53908;BME280;40469;47.998;7.794;2023-03-04T01:57:50;99537.75;;;-0.11;100.00
53908;BME280;40469;47.998;7.794;2023-03-04T02:00:23;99536.81;;;-0.13;100.00
53908;BME280;40469;47.998;7.794;2023-03-04T02:02:50;99534.88;;;-0.18;100.00
53908;BME280;40469;47.998;7.794;2023-03-04T02:05:16;99533.69;;;-0.27;100.00
53908;BME280;40469;47.998;7.794;2023-03-04T02:07:42;99531.00;;;-0.30;100.00
53908;BME280;40469;47.998;7.794;2023-03-04T02:10:08;99537.81;;;-0.30;100.00
53908;BME280;40469;47.998;7.794;2023-03-04T02:12:33;99541.94;;;-0.34;100.00
53908;BME280;40469;47.998;7.794;2023-03-04T02:14:58;99539.25;;;-0.37;100.00
53908;BME280;40469;47.998;7.794;2023-03-04T02:17:24;99537.41;;;-0.40;100.00
53908;BME280;40469;47.998;7.794;2023-03-04T02:19:52;99527.91;;;-0.42;100.00
53908;BME280;40469;47.998;7.794;2023-03-04T02:22:20;99533.13;;;-0.41;100.00
53908;BME280;40469;47.998;7.794;2023-03-04T02:24:46;99530.41;;;-0.44;100.00
53908;BME280;40469;47.998;7.794;2023-03-04T02:27:14;99530.41;;;-0.44;100.00
53908;BME280;40469;47.998;7.794;2023-03-04T02:29:39;99526.94;;;-0.44;100.00
53908;BME280;40469;47.998;7.794;2023-03-04T02:32:04;99532.91;;;-0.45;100.00
53908;BME280;40469;47.998;7.794;2023-03-04T02:34:30;99531.97;;;-0.47;100.00
53908;BME280;40469;47.998;7.794;2023-03-04T02:36:57;99529.47;;;-0.46;100.00
53908;BME280;40469;47.998;7.794;2023-03-04T02:39:36;99532.03;;;-0.46;100.00
53908;BME280;40469;47.998;7.794;2023-03-04T02:42:03;99532.84;;;-0.47;100.00
53908;BME280;40469;47.998;7.794;2023-03-04T02:44:29;99525.13;;;-0.47;100.00
53908;BME280;40469;47.998;7.794;2023-03-04T02:46:55;99530.19;;;-0.48;100.00
53908;BME280;40469;47.998;7.794;2023-03-04T02:49:21;99533.59;;;-0.49;100.00
53908;BME280;40469;47.998;7.794;2023-03-04T02:52:00;99537.72;;;-0.53;100.00
53908;BME280;40469;47.998;7.794;2023-03-04T02:54:26;99540.28;;;-0.53;100.00
53908;BME280;40469;47.998;7.794;2023-03-04T02:56:52;99534.94;;;-0.58;100.00
53908;BME280;40469;47.998;7.794;2023-03-04T02:59:17;99535.66;;;-0.60;100.00
53908;BME280;40469;47.998;7.794;2023-03-04T03:01:43;99535.63;;;-0.62;100.00
53908;BME280;40469;47.998;7.794;2023-03-04T03:04:09;99540.00;;;-0.59;100.00
53908;BME280;40469;47.998;7.794;2023-03-04T03:06:34;99538.38;;;-0.57;100.00
53908;BME280;40469;47.998;7.794;2023-03-04T03:09:00;99531.53;;;-0.57;100.00
53908;BME280;40469;47.998;7.794;2023-03-04T03:11:25;99538.13;;;-0.63;100.00
53908;BME280;40469;47.998;7.794;2023-03-04T03:13:50;99539.66;;;-0.67;100.00
53908;BME280;40469;47.998;7.794;2023-03-04T03:16:16;99544.78;;;-0.67;100.00
53908;BME280;40469;47.998;7.794;2023-03-04T03:18:41;99533.63;;;-0.67;100.00
53908;BME280;40469;47.998;7.794;2023-03-04T03:21:06;99534.53;;;-0.67;100.00
53908;BME280;40469;47.998;7.794;2023-03-04T03:23:32;99545.25;;;-0.75;100.00
53908;BME280;40469;47.998;7.794;2023-03-04T03:25:57;99545.25;;;-0.75;100.00
53908;BME280;40469;47.998;7.794;2023-03-04T03:28:23;99539.91;;;-0.80;100.00
53908;BME280;40469;47.998;7.794;2023-03-04T03:30:48;99538.84;;;-0.85;100.00
53908;BME280;40469;47.998;7.794;2023-03-04T03:33:13;99539.69;;;-0.85;100.00
53908;BME280;40469;47.998;7.794;2023-03-04T03:35:38;99531.22;;;-0.84;100.00
53908;BME280;40469;47.998;7.794;2023-03-04T03:38:03;99535.31;;;-0.87;100.00
53908;BME280;40469;47.998;7.794;2023-03-04T03:40:29;99538.69;;;-0.88;100.00
53908;BME280;40469;47.998;7.794;2023-03-04T03:42:54;99535.25;;;-0.89;100.00
53908;BME280;40469;47.998;7.794;2023-03-04T03:45:19;99535.25;;;-0.89;100.00
53908;BME280;40469;47.998;7.794;2023-03-04T03:47:45;99530.81;;;-0.93;100.00
53908;BME280;40469;47.998;7.794;2023-03-04T03:50:10;99535.78;;;-0.96;100.00
53908;BME280;40469;47.998;7.794;2023-03-04T03:52:35;99539.97;;;-0.98;100.00
53908;BME280;40469;47.998;7.794;2023-03-04T03:55:00;99544.28;;;-0.97;100.00
53908;BME280;40469;47.998;7.794;2023-03-04T03:57:26;99542.53;;;-0.98;100.00
53908;BME280;40469;47.998;7.794;2023-03-04T03:59:51;99546.72;;;-1.00;100.00
53908;BME280;40469;47.998;7.794;2023-03-04T04:02:16;99544.69;;;-1.07;100.00
53908;BME280;40469;47.998;7.794;2023-03-04T04:04:41;99547.19;;;-1.09;100.00
53908;BME280;40469;47.998;7.794;2023-03-04T04:07:07;99543.44;;;-1.16;100.00
53908;BME280;40469;47.998;7.794;2023-03-04T04:09:32;99555.09;;;-1.22;100.00
53908;BME280;40469;47.998;7.794;2023-03-04T04:11:57;99555.16;;;-1.21;100.00
53908;BME280;40469;47.998;7.794;2023-03-04T04:14:22;99559.19;;;-1.26;100.00
53908;BME280;40469;47.998;7.794;2023-03-04T04:16:48;99562.69;;;-1.24;100.00
53908;BME280;40469;47.998;7.794;2023-03-04T04:19:15;99558.31;;;-1.26;100.00
53908;BME280;40469;47.998;7.794;2023-03-04T04:21:40;99559.19;;;-1.26;100.00
53908;BME280;40469;47.998;7.794;2023-03-04T04:24:06;99549.03;;;-1.24;100.00
53908;BME280;40469;47.998;7.794;2023-03-04T04:26:31;99557.50;;;-1.25;100.00
53908;BME280;40469;47.998;7.794;2023-03-04T04:28:56;99556.56;;;-1.27;100.00
53908;BME280;40469;47.998;7.794;2023-03-04T04:31:21;99564.25;;;-1.27;100.00
53908;BME280;40469;47.998;7.794;2023-03-04T04:33:46;99549.63;;;-1.30;100.00
53908;BME280;40469;47.998;7.794;2023-03-04T04:36:12;99556.22;;;-1.35;100.00
53908;BME280;40469;47.998;7.794;2023-03-04T04:38:38;99552.78;;;-1.36;100.00
53908;BME280;40469;47.998;7.794;2023-03-04T04:41:03;99552.47;;;-1.42;100.00
53908;BME280;40469;47.998;7.794;2023-03-04T04:43:29;99554.88;;;-1.45;100.00
53908;BME280;40469;47.998;7.794;2023-03-04T04:45:54;99552.28;;;-1.46;100.00
53908;BME280;40469;47.998;7.794;2023-03-04T04:48:19;99554.88;;;-1.45;100.00
53908;BME280;40469;47.998;7.794;2023-03-04T04:50:45;99555.84;;;-1.43;100.00
53908;BME280;40469;47.998;7.794;2023-03-04T04:53:13;99549.03;;;-1.42;100.00
53908;BME280;40469;47.998;7.794;2023-03-04T04:55:38;99554.25;;;-1.41;100.00
53908;BME280;40469;47.998;7.794;2023-03-04T04:58:04;99553.84;;;-1.48;100.00
53908;BME280;40469;47.998;7.794;2023-03-04T05:00:30;99562.38;;;-1.49;100.00
53908;BME280;40469;47.998;7.794;2023-03-04T05:02:55;99551.97;;;-1.53;100.00
53908;BME280;40469;47.998;7.794;2023-03-04T05:05:20;99553.50;;;-1.56;100.00
53908;BME280;40469;47.998;7.794;2023-03-04T05:07:45;99560.91;;;-1.62;100.00
53908;BME280;40469;47.998;7.794;2023-03-04T05:10:10;99553.16;;;-1.64;100.00
53908;BME280;40469;47.998;7.794;2023-03-04T05:12:36;99553.22;;;-1.62;100.00
53908;BME280;40469;47.998;7.794;2023-03-04T05:15:01;99559.06;;;-1.65;100.00
53908;BME280;40469;47.998;7.794;2023-03-04T05:17:26;99551.03;;;-1.73;100.00
53908;BME280;40469;47.998;7.794;2023-03-04T05:19:52;99556.06;;;-1.74;100.00
53908;BME280;40469;47.998;7.794;2023-03-04T05:22:17;99558.47;;;-1.77;100.00
53908;BME280;40469;47.998;7.794;2023-03-04T05:24:42;99561.34;;;-1.71;100.00
53908;BME280;40469;47.998;7.794;2023-03-04T05:27:07;99558.53;;;-1.76;100.00
53908;BME280;40469;47.998;7.794;2023-03-04T05:29:33;99561.88;;;-1.77;100.00
53908;BME280;40469;47.998;7.794;2023-03-04T05:31:58;99563.59;;;-1.77;100.00
53908;BME280;40469;47.998;7.794;2023-03-04T05:34:23;99564.97;;;-1.84;100.00
53908;BME280;40469;47.998;7.794;2023-03-04T05:36:48;99557.59;;;-1.78;100.00
53908;BME280;40469;47.998;7.794;2023-03-04T05:39:14;99566.81;;;-1.81;100.00
53908;BME280;40469;47.998;7.794;2023-03-04T05:41:39;99562.31;;;-1.85;100.00
53908;BME280;40469;47.998;7.794;2023-03-04T05:44:04;99563.50;;;-1.79;100.00
53908;BME280;40469;47.998;7.794;2023-03-04T05:46:29;99559.91;;;-1.82;100.00
53908;BME280;40469;47.998;7.794;2023-03-04T05:48:55;99558.09;;;-1.85;100.00
53908;BME280;40469;47.998;7.794;2023-03-04T05:51:20;99568.53;;;-1.80;100.00
53908;BME280;40469;47.998;7.794;2023-03-04T05:53:46;99562.47;;;-1.82;100.00
53908;BME280;40469;47.998;7.794;2023-03-04T05:56:12;99562.47;;;-1.82;100.00
53908;BME280;40469;47.998;7.794;2023-03-04T05:58:38;99568.03;;;-1.73;100.00
53908;BME280;40469;47.998;7.794;2023-03-04T06:01:03;99561.97;;;-1.75;100.00
53908;BME280;40469;47.998;7.794;2023-03-04T06:03:28;99569.66;;;-1.75;100.00
53908;BME280;40469;47.998;7.794;2023-03-04T06:05:54;99570.47;;;-1.76;100.00
53908;BME280;40469;47.998;7.794;2023-03-04T06:08:19;99569.38;;;-1.81;100.00
53908;BME280;40469;47.998;7.794;2023-03-04T06:10:44;99575.19;;;-1.84;100.00
53908;BME280;40469;47.998;7.794;2023-03-04T06:13:09;99574.09;;;-1.89;100.00
53908;BME280;40469;47.998;7.794;2023-03-04T06:15:35;99582.50;;;-1.92;100.00
53908;BME280;40469;47.998;7.794;2023-03-04T06:18:00;99578.91;;;-1.95;100.00
53908;BME280;40469;47.998;7.794;2023-03-04T06:20:26;99582.41;;;-1.93;100.00
53908;BME280;40469;47.998;7.794;2023-03-04T06:22:51;99586.59;;;-1.95;100.00
53908;BME280;40469;47.998;7.794;2023-03-04T06:25:17;99586.75;;;-1.92;100.00
53908;BME280;40469;47.998;7.794;2023-03-04T06:27:42;99592.16;;;-1.86;100.00
53908;BME280;40469;47.998;7.794;2023-03-04T06:30:07;99594.97;;;-1.81;100.00
53908;BME280;40469;47.998;7.794;2023-03-04T06:32:33;99600.25;;;-1.78;100.00
53908;BME280;40469;47.998;7.794;2023-03-04T06:34:58;99603.00;;;-1.74;100.00
53908;BME280;40469;47.998;7.794;2023-03-04T06:37:23;99601.41;;;-1.72;100.00
53908;BME280;40469;47.998;7.794;2023-03-04T06:39:49;99601.63;;;-1.67;100.00
53908;BME280;40469;47.998;7.794;2023-03-04T06:42:14;99603.44;;;-1.64;100.00
53908;BME280;40469;47.998;7.794;2023-03-04T06:44:39;99606.00;;;-1.64;100.00
53908;BME280;40469;47.998;7.794;2023-03-04T06:47:05;99603.41;;;-1.66;100.00
53908;BME280;40469;47.998;7.794;2023-03-04T06:49:30;99605.13;;;-1.65;100.00
53908;BME280;40469;47.998;7.794;2023-03-04T06:51:55;99609.41;;;-1.65;100.00
53908;BME280;40469;47.998;7.794;2023-03-04T06:54:20;99612.09;;;-1.62;100.00
53908;BME280;40469;47.998;7.794;2023-03-04T06:56:46;99612.31;;;-1.58;100.00
53908;BME280;40469;47.998;7.794;2023-03-04T06:59:11;99609.75;;;-1.58;100.00
53908;BME280;40469;47.998;7.794;2023-03-04T07:01:36;99616.56;;;-1.58;100.00
53908;BME280;40469;47.998;7.794;2023-03-04T07:04:02;99623.50;;;-1.56;100.00
53908;BME280;40469;47.998;7.794;2023-03-04T07:06:27;99625.13;;;-1.58;100.00
53908;BME280;40469;47.998;7.794;2023-03-04T07:08:53;99628.94;;;-1.49;100.00
53908;BME280;40469;47.998;7.794;2023-03-04T07:11:19;99631.78;;;-1.43;100.00
53908;BME280;40469;47.998;7.794;2023-03-04T07:13:46;99632.09;;;-1.37;100.00
53908;BME280;40469;47.998;7.794;2023-03-04T07:16:12;99640.72;;;-1.35;100.00
53908;BME280;40469;47.998;7.794;2023-03-04T07:18:37;99636.78;;;-1.28;100.00
53908;BME280;40469;47.998;7.794;2023-03-04T07:21:03;99643.09;;;-1.22;100.00
53908;BME280;40469;47.998;7.794;2023-03-04T07:23:28;99639.63;;;-1.22;100.00
53908;BME280;40469;47.998;7.794;2023-03-04T07:25:54;99641.31;;;-1.23;100.00
53908;BME280;40469;47.998;7.794;2023-03-04T07:28:19;99641.03;;;-1.11;100.00
53908;BME280;40469;47.998;7.794;2023-03-04T07:30:44;99643.72;;;-1.08;100.00
53908;BME280;40469;47.998;7.794;2023-03-04T07:33:10;99638.22;;;-0.98;100.00
53908;BME280;40469;47.998;7.794;2023-03-04T07:35:35;99643.28;;;-0.99;100.00
53908;BME280;40469;47.998;7.794;2023-03-04T07:38:00;99646.16;;;-0.93;100.00
53908;BME280;40469;47.998;7.794;2023-03-04T07:40:26;99652.72;;;-0.80;100.00
53908;BME280;40469;47.998;7.794;2023-03-04T07:42:51;99650.81;;;-0.66;100.00
53908;BME280;40469;47.998;7.794;2023-03-04T07:45:17;99650.94;;;-0.63;100.00
53908;BME280;40469;47.998;7.794;2023-03-04T07:47:42;99657.75;;;-0.64;100.00
53908;BME280;40469;47.998;7.794;2023-03-04T07:50:08;99655.25;;;-0.62;100.00
53908;BME280;40469;47.998;7.794;2023-03-04T07:52:36;99659.50;;;-0.63;100.00
53908;BME280;40469;47.998;7.794;2023-03-04T07:55:02;99663.78;;;-0.63;100.00
53908;BME280;40469;47.998;7.794;2023-03-04T07:57:27;99662.53;;;-0.71;100.00
53908;BME280;40469;47.998;7.794;2023-03-04T07:59:52;99672.94;;;-0.68;100.00
53908;BME280;40469;47.998;7.794;2023-03-04T08:02:18;99668.69;;;-0.68;100.00
53908;BME280;40469;47.998;7.794;2023-03-04T08:04:43;99676.59;;;-0.63;100.00
53908;BME280;40469;47.998;7.794;2023-03-04T08:07:08;99680.19;;;-0.60;100.00
53908;BME280;40469;47.998;7.794;2023-03-04T08:09:33;99682.59;;;-0.63;100.00
53908;BME280;40469;47.998;7.794;2023-03-04T08:11:58;99677.38;;;-0.64;100.00
53908;BME280;40469;47.998;7.794;2023-03-04T08:14:24;99679.22;;;-0.62;100.00
53908;BME280;40469;47.998;7.794;2023-03-04T08:16:49;99683.84;;;-0.54;100.00
53908;BME280;40469;47.998;7.794;2023-03-04T08:19:14;99673.69;;;-0.51;100.00
53908;BME280;40469;47.998;7.794;2023-03-04T08:21:39;99674.59;;;-0.51;100.00
53908;BME280;40469;47.998;7.794;2023-03-04T08:24:05;99674.84;;;-0.45;100.00
53908;BME280;40469;47.998;7.794;2023-03-04T08:26:33;99669.66;;;-0.46;100.00
53908;BME280;40469;47.998;7.794;2023-03-04T08:28:59;99670.59;;;-0.44;100.00
53908;BME280;40469;47.998;7.794;2023-03-04T08:31:25;99669.34;;;-0.34;100.00
53908;BME280;40469;47.998;7.794;2023-03-04T08:33:50;99668.25;;;-0.40;100.00
53908;BME280;40469;47.998;7.794;2023-03-04T08:36:16;99673.47;;;-0.38;100.00
53908;BME280;40469;47.998;7.794;2023-03-04T08:38:42;99673.03;;;-0.47;100.00
53908;BME280;40469;47.998;7.794;2023-03-04T08:41:07;99672.38;;;-0.43;100.00
53908;BME280;40469;47.998;7.794;2023-03-04T08:43:33;99677.03;;;-0.34;100.00
53908;BME280;40469;47.998;7.794;2023-03-04T08:45:58;99681.31;;;-0.35;100.00
53908;BME280;40469;47.998;7.794;2023-03-04T08:48:24;99686.75;;;-0.27;100.00
53908;BME280;40469;47.998;7.794;2023-03-04T08:50:49;99681.31;;;-0.35;100.00
53908;BME280;40469;47.998;7.794;2023-03-04T08:53:15;99686.53;;;-0.32;100.00
53908;BME280;40469;47.998;7.794;2023-03-04T08:55:41;99683.97;;;-0.32;100.00
53908;BME280;40469;47.998;7.794;2023-03-04T08:58:07;99691.97;;;-0.26;100.00
53908;BME280;40469;47.998;7.794;2023-03-04T09:00:33;99691.81;;;-0.29;100.00
53908;BME280;40469;47.998;7.794;2023-03-04T09:02:58;99691.75;;;-0.30;100.00
53908;BME280;40469;47.998;7.794;2023-03-04T09:05:23;99697.44;;;-0.18;100.00
53908;BME280;40469;47.998;7.794;2023-03-04T09:07:49;99703.41;;;-0.19;100.00
53908;BME280;40469;47.998;7.794;2023-03-04T09:10:14;99706.16;;;-0.14;100.00
53908;BME280;40469;47.998;7.794;2023-03-04T09:12:39;99706.59;;;-0.05;100.00
53908;BME280;40469;47.998;7.794;2023-03-04T09:15:05;99708.84;;;-0.11;100.00
53908;BME280;40469;47.998;7.794;2023-03-04T09:17:30;99707.03;;;-0.33;100.00
53908;BME280;40469;47.998;7.794;2023-03-04T09:19:56;99702.34;;;-0.42;100.00
53908;BME280;40469;47.998;7.794;2023-03-04T09:22:21;99704.78;;;-0.45;100.00
53908;BME280;40469;47.998;7.794;2023-03-04T09:24:46;99702.16;;;-0.65;100.00
53908;BME280;40469;47.998;7.794;2023-03-04T09:27:11;99705.78;;;-0.42;100.00
53908;BME280;40469;47.998;7.794;2023-03-04T09:29:37;99704.81;;;-0.26;100.00
53908;BME280;40469;47.998;7.794;2023-03-04T09:32:02;99709.53;;;-0.15;100.00
53908;BME280;40469;47.998;7.794;2023-03-04T09:34:27;99706.03;;;-0.17;100.00
53908;BME280;40469;47.998;7.794;2023-03-04T09:36:52;99703.59;;;-0.14;100.00
53908;BME280;40469;47.998;7.794;2023-03-04T09:39:18;99704.56;;;-0.12;100.00
53908;BME280;40469;47.998;7.794;2023-03-04T09:41:45;99698.59;;;-0.11;100.00
53908;BME280;40469;47.998;7.794;2023-03-04T09:44:15;99703.53;;;0.04;100.00
53908;BME280;40469;47.998;7.794;2023-03-04T09:46:45;99710.09;;;-0.03;100.00
53908;BME280;40469;47.998;7.794;2023-03-04T09:49:11;99705.34;;;-0.13;100.00
53908;BME280;40469;47.998;7.794;2023-03-04T09:56:40;99699.66;;;-0.26;100.00
53908;BME280;40469;47.998;7.794;2023-03-04T09:59:14;99702.72;;;-0.15;100.00
53908;BME280;40469;47.998;7.794;2023-03-04T10:01:41;99706.38;;;-0.10;100.00
53908;BME280;40469;47.998;7.794;2023-03-04T10:04:12;99714.00;;;-0.11;100.00
53908;BME280;40469;47.998;7.794;2023-03-04T10:06:41;99708.06;;;-0.10;100.00
53908;BME280;40469;47.998;7.794;2023-03-04T10:11:33;99706.78;;;-0.01;100.00
53908;BME280;40469;47.998;7.794;2023-03-04T10:16:26;99708.31;;;0.15;100.00
53908;BME280;40469;47.998;7.794;2023-03-04T10:18:55;99704.50;;;0.06;100.00
53908;BME280;40469;47.998;7.794;2023-03-04T10:21:22;99697.25;;;0.16;100.00
53908;BME280;40469;47.998;7.794;2023-03-04T10:23:50;99691.09;;;0.32;100.00
53908;BME280;40469;47.998;7.794;2023-03-04T10:26:18;99689.47;;;0.15;100.00
53908;BME280;40469;47.998;7.794;2023-03-04T10:28:45;99696.09;;;0.29;100.00
53908;BME280;40469;47.998;7.794;2023-03-04T10:33:46;99695.31;;;0.51;100.00
53908;BME280;40469;47.998;7.794;2023-03-04T10:38:46;99693.00;;;0.57;100.00
53908;BME280;40469;47.998;7.794;2023-03-04T10:41:16;99691.50;;;0.63;100.00
53908;BME280;40469;47.998;7.794;2023-03-04T10:43:41;99683.59;;;0.79;100.00
53908;BME280;40469;47.998;7.794;2023-03-04T10:46:10;99684.59;;;0.83;100.00
53908;BME280;40469;47.998;7.794;2023-03-04T10:48:36;99684.22;;;0.94;100.00
53908;BME280;40469;47.998;7.794;2023-03-04T10:51:11;99682.28;;;0.89;100.00
53908;BME280;40469;47.998;7.794;2023-03-04T10:53:40;99685.22;;;0.98;100.00
53908;BME280;40469;47.998;7.794;2023-03-04T10:56:52;99684.19;;;1.16;100.00
53908;BME280;40469;47.998;7.794;2023-03-04T10:58:52;99685.00;;;1.14;100.00
53908;BME280;40469;47.998;7.794;2023-03-04T11:01:17;99681.81;;;1.20;100.00
53908;BME280;40469;47.998;7.794;2023-03-04T11:03:49;99682.16;;;1.29;100.00
53908;BME280;40469;47.998;7.794;2023-03-04T11:06:15;99674.44;;;1.29;100.00
53908;BME280;40469;47.998;7.794;2023-03-04T11:08:43;99676.13;;;1.51;100.00
53908;BME280;40469;47.998;7.794;2023-03-04T11:11:24;99671.16;;;1.79;100.00
53908;BME280;40469;47.998;7.794;2023-03-04T11:13:53;99670.69;;;1.90;100.00
53908;BME280;40469;47.998;7.794;2023-03-04T11:16:23;99672.88;;;1.80;100.00
53908;BME280;40469;47.998;7.794;2023-03-04T11:18:50;99655.38;;;2.18;100.00
53908;BME280;40469;47.998;7.794;2023-03-04T11:21:24;99655.69;;;2.53;100.00
53908;BME280;40469;47.998;7.794;2023-03-04T11:24:10;99654.41;;;2.93;100.00
53908;BME280;40469;47.998;7.794;2023-03-04T11:26:39;99651.97;;;2.70;100.00
53908;BME280;40469;47.998;7.794;2023-03-04T11:29:19;99644.53;;;2.79;100.00
53908;BME280;40469;47.998;7.794;2023-03-04T11:31:48;99633.53;;;3.41;100.00
53908;BME280;40469;47.998;7.794;2023-03-04T11:36:56;99634.84;;;3.87;100.00
53908;BME280;40469;47.998;7.794;2023-03-04T11:42:09;99626.34;;;4.23;100.00
53908;BME280;40469;47.998;7.794;2023-03-04T11:44:37;99614.75;;;4.09;100.00
53908;BME280;40469;47.998;7.794;2023-03-04T11:47:05;99626.59;;;4.32;100.00
53908;BME280;40469;47.998;7.794;2023-03-04T11:52:32;99618.50;;;4.90;100.00
53908;BME280;40469;47.998;7.794;2023-03-04T11:55:24;99613.00;;;4.76;100.00
53908;BME280;40469;47.998;7.794;2023-03-04T11:58:03;99599.97;;;4.71;100.00
53908;BME280;40469;47.998;7.794;2023-03-04T12:03:03;99592.91;;;5.02;100.00
53908;BME280;40469;47.998;7.794;2023-03-04T12:08:32;99591.81;;;5.30;100.00
53908;BME280;40469;47.998;7.794;2023-03-04T12:11:10;99581.25;;;5.21;100.00
53908;BME280;40469;47.998;7.794;2023-03-04T12:21:16;99558.50;;;6.39;100.00
53908;BME280;40469;47.998;7.794;2023-03-04T12:31:32;99544.16;;;7.24;100.00
53908;BME280;40469;47.998;7.794;2023-03-04T12:44:32;99529.81;;;6.88;100.00
53908;BME280;40469;47.998;7.794;2023-03-04T12:49:49;99511.84;;;7.78;100.00
53908;BME280;40469;47.998;7.794;2023-03-04T12:54:48;99497.91;;;8.69;100.00
53908;BME280;40469;47.998;7.794;2023-03-04T12:57:24;99507.75;;;8.00;100.00
53908;BME280;40469;47.998;7.794;2023-03-04T13:02:30;99493.47;;;8.53;100.00
53908;BME280;40469;47.998;7.794;2023-03-04T13:05:02;99491.91;;;8.81;100.00
53908;BME280;40469;47.998;7.794;2023-03-04T13:10:13;99483.75;;;8.32;100.00
53908;BME280;40469;47.998;7.794;2023-03-04T13:12:49;99477.94;;;8.67;100.00
53908;BME280;40469;47.998;7.794;2023-03-04T13:15:26;99478.06;;;8.87;100.00
53908;BME280;40469;47.998;7.794;2023-03-04T13:17:52;99476.59;;;9.57;100.00
53908;BME280;40469;47.998;7.794;2023-03-04T13:20:37;99476.47;;;9.24;100.00
53908;BME280;40469;47.998;7.794;2023-03-04T13:23:17;99471.16;;;8.92;100.00
53908;BME280;40469;47.998;7.794;2023-03-04T13:25:49;99465.91;;;8.86;100.00
53908;BME280;40469;47.998;7.794;2023-03-04T13:28:31;99461.34;;;8.49;100.00
53908;BME280;40469;47.998;7.794;2023-03-04T13:31:12;99453.56;;;8.51;100.00
53908;BME280;40469;47.998;7.794;2023-03-04T13:36:04;99452.88;;;8.89;100.00
53908;BME280;40469;47.998;7.794;2023-03-04T13:38:33;99451.16;;;8.92;100.00
53908;BME280;40469;47.998;7.794;2023-03-04T13:43:46;99444.78;;;8.37;100.00
53908;BME280;40469;47.998;7.794;2023-03-04T13:51:24;99439.91;;;9.00;100.00
53908;BME280;40469;47.998;7.794;2023-03-04T13:56:36;99439.75;;;8.66;100.00
53908;BME280;40469;47.998;7.794;2023-03-04T14:06:42;99426.66;;;8.52;100.00
53908;BME280;40469;47.998;7.794;2023-03-04T14:09:12;99424.25;;;8.84;100.00
53908;BME280;40469;47.998;7.794;2023-03-04T14:11:38;99425.03;;;8.65;100.00
53908;BME280;40469;47.998;7.794;2023-03-04T14:14:29;99415.22;;;8.28;100.00
53908;BME280;40469;47.998;7.794;2023-03-04T14:17:00;99412.97;;;8.90;100.00